Sklinnabanken — LJQM — position and weather

sailwx.info

Track history (hours):
 
Tides and Currents Weather Stations Pressure Air Temp Water Temp Dewpoint Dewpoint Depression Visibility Wind Speed Wind Dir Waves Ship Positions

Sklinnabanken

Last reported at 2015-Jan-30 00:33 UTC. Time now 2015-Feb-01 18:15 UTC.
Position N 64°47' E 011°03'.

Length 28 m; draft 6 m.

Type: Fishing. MMSI: 259648000.

Date/timePositionNaut miles runAvg speedWind from/ knotsBaromVisibWave heightAir tempDewpointWater temp
2015-Jan-30 00:33N 64°47' E 011°03'8 8.4
2015-Jan-29 23:33N 64°53' E 011°17'8 8.4
2015-Jan-29 22:33N 64°58' E 011°33'8 8.3
2015-Jan-29 21:33N 65°04' E 011°45'9 8.3
2015-Jan-29 20:31N 65°12' E 011°53'74 8.1
2015-Jan-29 11:21N 66°21' E 012°57'7 8.1
2015-Jan-29 10:32N 66°28' E 012°59'9 7.2
2015-Jan-29 09:21N 66°36' E 013°04'24 8.1
2015-Jan-29 06:24N 66°58' E 013°30'10 8.3
2015-Jan-29 05:13N 67°03' E 013°52'5 8.1
2015-Jan-29 04:33N 67°07' E 014°00'8 8.0
2015-Jan-29 03:33N 67°14' E 014°10'8 8.3
2015-Jan-29 02:33N 67°21' E 014°22'8 8.3
2015-Jan-29 01:33N 67°29' E 014°29'156 4.7
2015-Jan-27 16:12N 69°33' E 018°45'5 7.5
2015-Jan-27 15:33N 69°37' E 018°54'3 2.7
2015-Jan-27 14:33N 69°39' E 018°58'0 0.1
2015-Jan-27 13:33N 69°39' E 018°58'  
Track history (hours):
 
Tides and Currents Weather Stations Pressure Air Temp Water Temp Dewpoint Dewpoint Depression Visibility Wind Speed Wind Dir Waves Ship Positions

Sklinnabanken

Last reported at 2015-Jan-30 00:33 UTC. Time now 2015-Feb-01 18:15 UTC.
Position N 64°47' E 011°03'.

Length 28 m; draft 6 m.

Type: Fishing. MMSI: 259648000.

Date/timePositionNaut miles runAvg speedWind from/ knotsBaromVisibWave heightAir tempDewpointWater temp
2015-Jan-30 00:33N 64°47' E 011°03'8 8.4
2015-Jan-29 23:33N 64°53' E 011°17'8 8.4
2015-Jan-29 22:33N 64°58' E 011°33'8 8.3
2015-Jan-29 21:33N 65°04' E 011°45'9 8.3
2015-Jan-29 20:31N 65°12' E 011°53'74 8.1
2015-Jan-29 11:21N 66°21' E 012°57'7 8.1
2015-Jan-29 10:32N 66°28' E 012°59'9 7.2
2015-Jan-29 09:21N 66°36' E 013°04'24 8.1
2015-Jan-29 06:24N 66°58' E 013°30'10 8.3
2015-Jan-29 05:13N 67°03' E 013°52'5 8.1
2015-Jan-29 04:33N 67°07' E 014°00'8 8.0
2015-Jan-29 03:33N 67°14' E 014°10'8 8.3
2015-Jan-29 02:33N 67°21' E 014°22'8 8.3
2015-Jan-29 01:33N 67°29' E 014°29'156 4.7
2015-Jan-27 16:12N 69°33' E 018°45'5 7.5
2015-Jan-27 15:33N 69°37' E 018°54'3 2.7
2015-Jan-27 14:33N 69°39' E 018°58'0 0.1
2015-Jan-27 13:33N 69°39' E 018°58'  

Dump ship's entire track history